Shelburne, Massachusetts
Current Conditions -  °F | °C
As of 10:52 PM on Saturday 20 Dec 2014 (Local Time) from KAQW Reporting Station
Overcast Overcast  
Wind Chill: 26°   Ceiling: 4100
Heat Index: 26°   Visibility: 10mi
Dew Point: 19°   Wind: 0mph
Humidity: 75%   Direction: NA
Pressure: 30.28"   Gusts: NA
Location:  42.6026°N, 72.7442°W
Report Text: KAQW 210352Z AUTO 00000KT 10SM OVC041 M03/M07 A3028 RMK AO2 SLP266 T10331072
Loading
Personal Weather Stations






























Interactive Weather Map New forecast layout! Learn more

10-Day Weather Forecast

Advertisements
Track Severe Weather on mobile